Time;durP1;ratioP1;P1;durP2;ratioP2;P2;SDS_P1;SDS_P2;PMS_P1;PMS_P2;Temp;Humidity;BMP_temperature;BMP_pressure;BME280_temperature;BME280_humidity;BME280_pressure;Samples;Min_cycle;Max_cycle;Signal;HPM_P1;HPM_P2
2022/01/14 00:00:39;;;;;;;3.13;2.05;;;;;;;17.80;52.06;103783.03;4869127;29;20046;-85
2022/01/14 00:03:05;;;;;;;3.63;1.80;;;;;;;17.79;51.86;103791.69;4868966;29;20045;-85
2022/01/14 00:05:31;;;;;;;4.43;2.10;;;;;;;17.79;52.09;103796.00;4869152;29;20040;-86
2022/01/14 00:07:57;;;;;;;3.08;2.05;;;;;;;17.79;52.05;103789.09;4884934;29;20018;-85
2022/01/14 00:10:27;;;;;;;2.78;1.80;;;;;;;17.79;51.60;103782.97;4868936;29;20029;-85
2022/01/14 00:12:57;;;;;;;3.22;2.10;;;;;;;17.77;52.11;103774.22;4869217;29;20046;-84
2022/01/14 00:15:26;;;;;;;3.50;1.90;;;;;;;17.77;51.93;103780.34;4869180;29;20013;-85
2022/01/14 00:17:54;;;;;;;3.05;1.90;;;;;;;17.77;51.73;103776.81;4883484;29;20045;-86
2022/01/14 00:20:21;;;;;;;3.38;1.70;;;;;;;17.77;51.91;103766.41;4868645;29;20110;-85
2022/01/14 00:22:48;;;;;;;2.63;1.80;;;;;;;17.77;51.80;103771.59;4884253;29;20037;-85
2022/01/14 00:53:59;;;;;;;2.55;1.65;;;;;;;17.75;51.60;103726.41;5126435;24;20057;-86
2022/01/14 00:56:44;;;;;;;2.80;1.58;;;;;;;17.72;51.74;103734.97;4853022;29;20100;-83
2022/01/14 00:59:14;;;;;;;3.10;1.75;;;;;;;17.73;51.60;103739.38;4852224;29;20018;-85
2022/01/14 01:01:45;;;;;;;2.58;1.80;;;;;;;17.71;51.63;103735.84;4852278;29;20033;-85
2022/01/14 01:04:16;;;;;;;5.25;1.67;;;;;;;17.73;51.65;103731.56;4852043;29;20044;-85
2022/01/14 01:06:44;;;;;;;2.38;1.60;;;;;;;17.72;51.71;103737.59;4852590;29;20014;-84
2022/01/14 01:09:12;;;;;;;2.22;1.63;;;;;;;17.69;51.51;103727.94;4851690;29;20041;-84
2022/01/14 01:11:42;;;;;;;2.20;1.52;;;;;;;17.71;51.62;103722.81;4851556;29;20113;-85
2022/01/14 01:14:19;;;;;;;2.60;1.80;;;;;;;17.71;51.53;103729.75;4868229;29;20017;-85
2022/01/14 01:16:45;;;;;;;2.35;1.50;;;;;;;17.71;51.75;103728.03;4851869;29;20033;-85
2022/01/14 01:19:11;;;;;;;2.45;1.52;;;;;;;17.70;51.58;103721.03;4852219;29;20077;-85
2022/01/14 01:21:37;;;;;;;2.88;1.65;;;;;;;17.70;51.63;103728.84;4852191;29;20071;-84
2022/01/14 01:24:10;;;;;;;2.83;1.75;;;;;;;17.71;51.78;103724.53;4851528;29;20079;-84
2022/01/14 01:26:39;;;;;;;2.67;1.55;;;;;;;17.69;51.57;103722.75;4851980;29;20059;-84
2022/01/14 01:31:37;;;;;;;2.80;1.83;;;;;;;17.68;51.56;103720.06;4867707;29;20038;-85
2022/01/14 01:34:11;;;;;;;2.30;1.52;;;;;;;17.67;51.51;103721.81;4851071;29;20028;-84
2022/01/14 01:36:39;;;;;;;1.92;1.50;;;;;;;17.68;51.48;103720.06;4851275;29;20105;-85
2022/01/14 01:39:08;;;;;;;2.08;1.50;;;;;;;17.68;51.49;103718.38;4851997;29;20025;-81
2022/01/14 01:41:39;;;;;;;2.25;1.58;;;;;;;17.65;51.52;103715.66;4850755;29;20014;-85
2022/01/14 01:44:11;;;;;;;2.40;1.50;;;;;;;17.66;51.46;103714.84;4850947;29;20029;-85
2022/01/14 01:46:40;;;;;;;2.95;1.70;;;;;;;17.65;51.15;103715.66;4837026;29;20029;-84
2022/01/14 02:03:39;;;;;;;2.40;1.67;;;;;;;17.65;51.40;103720.84;4905061;24;20041;-85
2022/01/14 02:06:05;;;;;;;2.05;1.33;;;;;;;17.63;51.37;103713.81;4870370;29;20045;-85
2022/01/14 02:08:31;;;;;;;2.67;1.63;;;;;;;17.65;51.57;103717.38;4869087;29;20238;-84
2022/01/14 02:10:59;;;;;;;2.20;1.38;;;;;;;17.64;51.43;103723.44;4885177;29;20124;-83
2022/01/14 02:13:25;;;;;;;1.92;1.35;;;;;;;17.63;51.04;103708.63;4885291;29;20080;-85
2022/01/14 02:18:36;;;;;;;2.38;1.70;;;;;;;17.62;51.36;103707.75;4982984;23;20037;-85
2022/01/14 02:41:48;;;;;;;2.92;1.50;;;;;;;17.61;51.20;103715.50;5324616;23;20042;-84
2022/01/14 02:59:47;;;;;;;2.28;1.55;;;;;;;17.58;51.37;103715.38;5062150;23;20079;-85
2022/01/14 03:02:14;;;;;;;1.88;1.40;;;;;;;17.56;51.28;103717.94;4902958;29;20013;-84
2022/01/14 03:04:42;;;;;;;3.47;1.42;;;;;;;17.58;51.24;103712.78;4886707;29;20044;-84
2022/01/14 03:07:09;;;;;;;3.15;1.40;;;;;;;17.55;51.11;103707.44;4886925;29;20032;-85
2022/01/14 03:09:38;;;;;;;2.55;1.20;;;;;;;17.56;51.09;103712.72;4887607;29;20044;-85
2022/01/14 03:12:04;;;;;;;2.45;1.48;;;;;;;17.54;51.21;103708.28;4887811;29;20025;-85
2022/01/14 03:14:30;;;;;;;2.00;1.40;;;;;;;17.55;51.17;103717.88;4902669;29;20058;-85
2022/01/14 03:16:59;;;;;;;2.78;1.50;;;;;;;17.54;51.26;103716.97;4887234;29;20076;-84
2022/01/14 03:19:26;;;;;;;1.83;1.20;;;;;;;17.53;51.18;103707.41;4902379;29;20061;-85
2022/01/14 03:22:04;;;;;;;2.35;1.40;;;;;;;17.55;51.10;103704.84;4887568;29;20033;-85
2022/01/14 03:27:01;;;;;;;2.30;1.42;;;;;;;17.55;51.19;103704.84;4903185;29;20024;-85
2022/01/14 03:29:27;;;;;;;1.98;1.40;;;;;;;17.53;51.30;103697.00;4886640;29;20049;-85
2022/01/14 03:31:53;;;;;;;2.60;1.48;;;;;;;17.51;50.96;103698.66;4886630;29;20029;-85
2022/01/14 03:34:19;;;;;;;2.17;1.40;;;;;;;17.53;50.88;103699.59;4886767;29;20048;-84
2022/01/14 03:36:44;;;;;;;2.05;1.27;;;;;;;17.51;50.93;103693.44;4901899;29;20041;-85
2022/01/14 03:39:11;;;;;;;1.77;1.30;;;;;;;17.49;51.14;103695.13;4886261;29;20061;-85
2022/01/14 03:41:40;;;;;;;2.20;1.23;;;;;;;17.52;51.00;103695.22;4903290;29;20032;-85
2022/01/14 03:44:06;;;;;;;2.53;1.40;;;;;;;17.50;50.97;103680.38;5101225;23;20023;-83
2022/01/14 03:46:32;;;;;;;2.30;1.40;;;;;;;17.49;51.10;103679.50;4849510;29;20053;-85
2022/01/14 03:48:58;;;;;;;2.17;1.38;;;;;;;17.50;50.77;103681.25;4849314;29;20034;-85
2022/01/14 03:51:24;;;;;;;2.47;1.30;;;;;;;17.50;50.97;103685.56;4848934;29;20059;-85
2022/01/14 03:53:50;;;;;;;1.63;1.20;;;;;;;17.49;50.83;103684.69;4849100;29;20034;-85
2022/01/14 03:56:16;;;;;;;2.50;1.35;;;;;;;17.50;51.05;103685.56;4849035;29;20038;-84
2022/01/14 03:58:43;;;;;;;2.45;1.52;;;;;;;17.48;51.00;103681.22;4849482;29;20041;-85
2022/01/14 04:01:11;;;;;;;2.65;1.45;;;;;;;17.50;50.71;103677.75;4849096;29;20045;-85
2022/01/14 04:03:37;;;;;;;2.30;1.25;;;;;;;17.49;50.85;103674.28;4865296;29;20066;-84
2022/01/14 04:06:04;;;;;;;2.88;1.50;;;;;;;17.48;50.72;103669.91;4850664;29;20049;-84
2022/01/14 04:08:30;;;;;;;2.30;1.30;;;;;;;17.50;50.99;103675.16;4853221;29;20030;-85
2022/01/14 04:10:57;;;;;;;2.08;1.35;;;;;;;17.51;51.08;103672.63;4853173;29;20051;-85
2022/01/14 04:13:36;;;;;;;1.60;1.17;;;;;;;17.48;51.18;103663.00;4866930;29;20105;-85
2022/01/14 04:16:02;;;;;;;2.55;1.27;;;;;;;17.48;51.14;103663.00;4852721;29;20033;-85
2022/01/14 04:18:28;;;;;;;2.15;1.30;;;;;;;17.48;51.02;103660.38;4868211;29;20067;-84
2022/01/14 04:20:53;;;;;;;2.97;1.50;;;;;;;17.50;50.96;103662.16;4851976;29;20064;-84
2022/01/14 04:23:24;;;;;;;2.72;1.45;;;;;;;17.48;50.85;103659.47;4867240;29;20054;-84
2022/01/14 04:25:53;;;;;;;2.13;1.30;;;;;;;17.48;50.86;103657.78;4851899;29;20038;-85
2022/01/14 04:28:23;;;;;;;1.88;1.30;;;;;;;17.48;51.22;103657.78;4849921;29;20041;-84
2022/01/14 04:30:56;;;;;;;2.58;1.40;;;;;;;17.49;50.86;103650.84;4848798;29;20425;-84
2022/01/14 04:33:30;;;;;;;3.50;1.58;;;;;;;17.50;50.86;103643.91;4865227;29;20042;-84
2022/01/14 04:35:58;;;;;;;3.28;1.60;;;;;;;17.49;50.90;103648.25;4848693;29;20385;-85
2022/01/14 04:38:25;;;;;;;2.13;1.38;;;;;;;17.48;51.06;103652.56;4848203;29;20030;-84
2022/01/14 04:40:51;;;;;;;2.58;1.27;;;;;;;17.50;50.85;103641.31;4848585;29;20030;-84
2022/01/14 04:43:19;;;;;;;2.33;1.30;;;;;;;17.48;50.77;103628.22;4863687;29;20037;-84
2022/01/14 04:48:28;;;;;;;2.35;1.35;;;;;;;17.50;50.92;103647.41;4884454;29;20060;-84
2022/01/14 04:50:55;;;;;;;3.42;1.50;;;;;;;17.48;50.95;103628.22;4866458;29;20058;-83
2022/01/14 04:53:21;;;;;;;2.53;1.48;;;;;;;17.48;50.90;103630.84;4867942;29;20029;-84
2022/01/14 04:55:48;;;;;;;3.50;1.60;;;;;;;17.49;50.82;103627.41;4868266;29;20037;-85
2022/01/14 04:58:14;;;;;;;2.75;1.50;;;;;;;17.48;50.80;103623.94;4866954;29;20037;-84
2022/01/14 05:00:40;;;;;;;3.45;1.42;;;;;;;17.49;50.98;103611.81;4867283;29;20040;-84
2022/01/14 05:03:06;;;;;;;3.08;1.50;;;;;;;17.48;50.86;103615.22;4867945;29;20037;-85
2022/01/14 05:05:37;;;;;;;1.88;1.20;;;;;;;17.47;50.76;103608.25;4868539;29;20066;-86
2022/01/14 05:08:42;;;;;;;2.45;1.38;;;;;;;17.48;50.87;103605.72;4840600;29;20088;-84
2022/01/14 05:14:50;;;;;;;2.30;1.38;;;;;;;17.48;50.80;103613.53;4827199;29;20037;-84
2022/01/14 05:17:24;;;;;;;2.20;1.50;;;;;;;17.50;50.97;103620.50;4829819;29;20038;-85
2022/01/14 05:20:09;;;;;;;2.95;1.73;;;;;;;17.48;50.85;103615.22;4829689;29;20053;-82
2022/01/14 05:33:08;;;;;;;1.88;1.20;;;;;;;17.54;50.98;103596.34;4793949;30;19932;-84
2022/01/14 05:35:34;;;;;;;2.35;1.33;;;;;;;17.52;50.82;103588.47;4788288;30;20055;-81
2022/01/14 05:38:00;;;;;;;2.50;1.42;;;;;;;17.54;51.25;103593.72;4772681;30;20047;-81
2022/01/14 05:40:32;;;;;;;2.30;1.42;;;;;;;17.53;50.87;103585.03;4789698;30;20103;-82
2022/01/14 05:50:32;;;;;;;2.95;1.30;;;;;;;17.55;51.15;103619.84;4829356;29;20111;-83
2022/01/14 05:56:55;;;;;;;2.47;1.50;;;;;;;17.55;51.25;103606.81;4822882;29;20570;-83
2022/01/14 05:59:27;;;;;;;2.00;1.15;;;;;;;17.56;51.07;103618.97;4826520;29;20573;-83
2022/01/14 06:01:59;;;;;;;2.78;1.48;;;;;;;17.56;51.19;103618.97;4825588;29;20045;-83
2022/01/14 06:04:26;;;;;;;2.25;1.33;;;;;;;17.56;51.09;103631.13;4843696;29;20050;-83
2022/01/14 06:07:15;;;;;;;2.38;1.23;;;;;;;17.55;51.19;103625.03;4861230;29;20026;-84
2022/01/14 06:09:42;;;;;;;2.72;1.38;;;;;;;17.54;51.13;103623.25;4854050;29;20053;-82
2022/01/14 06:12:12;;;;;;;3.22;1.63;;;;;;;17.56;51.02;103633.72;4840231;29;20042;-83
2022/01/14 06:14:39;;;;;;;2.30;1.38;;;;;;;17.54;51.29;103619.78;4855494;29;20042;-82
2022/01/14 06:17:06;;;;;;;2.90;1.55;;;;;;;17.56;51.48;103631.13;4821741;29;20041;-81
2022/01/14 06:19:38;;;;;;;2.53;1.40;;;;;;;17.55;51.53;103624.13;4840121;29;20038;-82
2022/01/14 06:22:03;;;;;;;2.78;1.15;;;;;;;17.55;51.67;103631.94;4825037;29;20087;-81
2022/01/14 06:24:29;;;;;;;5.05;2.00;;;;;;;17.56;51.46;103636.34;4839637;29;20041;-83
2022/01/14 06:26:55;;;;;;;6.20;2.33;;;;;;;17.54;51.49;103635.38;4857305;29;20062;-81
2022/01/14 06:29:22;;;;;;;5.10;2.30;;;;;;;17.56;51.56;103632.00;4821606;29;20037;-81
2022/01/14 06:31:47;;;;;;;5.75;2.53;;;;;;;17.55;51.41;103634.53;4826751;29;20045;-81
2022/01/14 06:34:14;;;;;;;6.65;2.80;;;;;;;17.57;51.46;103639.00;4853538;29;20168;-83
2022/01/14 06:36:43;;;;;;;9.77;2.83;;;;;;;17.56;51.77;103626.78;4845239;29;20042;-81
2022/01/14 06:42:15;;;;;;;7.43;2.88;;;;;;;17.57;51.39;103636.41;4845027;29;20061;-83
2022/01/14 06:45:06;;;;;;;6.70;2.55;;;;;;;17.59;51.56;103633.81;4820519;29;20039;-83
2022/01/14 06:48:15;;;;;;;7.25;2.83;;;;;;;17.59;51.70;103644.25;4819564;29;20058;-83
2022/01/14 06:50:56;;;;;;;7.78;3.30;;;;;;;17.58;51.69;103635.56;4806454;29;20043;-82
2022/01/14 06:56:47;;;;;;;11.63;3.40;;;;;;;17.58;51.89;103634.66;4789070;29;20054;-82
2022/01/14 06:59:37;;;;;;;4.93;2.92;;;;;;;17.59;51.78;103639.03;4785229;30;20068;-83
2022/01/14 07:02:46;;;;;;;8.43;3.45;;;;;;;17.59;51.96;103641.63;4740343;30;20055;-83
2022/01/14 07:05:13;;;;;;;7.43;3.35;;;;;;;17.60;52.00;103643.41;4783199;30;20047;-82
2022/01/14 07:11:11;;;;;;;6.88;2.78;;;;;;;17.60;51.96;103635.63;4767544;30;20051;-82
2022/01/14 07:14:16;;;;;;;5.80;2.75;;;;;;;17.60;51.78;103633.00;4739909;30;20051;-83
2022/01/14 07:17:11;;;;;;;5.60;2.92;;;;;;;17.60;51.80;103635.63;4750705;30;20047;-82
2022/01/14 07:19:40;;;;;;;6.70;2.72;;;;;;;17.60;51.93;103640.81;4765483;30;20066;-83
2022/01/14 07:22:25;;;;;;;10.75;2.95;;;;;;;17.60;51.83;103641.69;4736900;30;20045;-83
2022/01/14 07:25:12;;;;;;;5.63;2.78;;;;;;;17.59;51.83;103647.72;4748667;30;20596;-82
2022/01/14 07:27:40;;;;;;;6.10;2.65;;;;;;;17.60;51.80;103651.22;4737591;30;20032;-82
2022/01/14 07:30:10;;;;;;;10.38;3.20;;;;;;;17.60;51.85;103646.91;4744855;30;20028;-83
2022/01/14 07:33:28;;;;;;;5.60;2.90;;;;;;;17.60;51.95;103646.91;4770589;30;20094;-81
2022/01/14 07:36:14;;;;;;;6.55;2.67;;;;;;;17.61;52.07;103647.78;4737233;30;20029;-84
2022/01/14 07:38:49;;;;;;;5.97;2.63;;;;;;;17.61;51.78;103656.47;4725673;30;20112;-84
2022/01/14 07:41:48;;;;;;;6.00;2.88;;;;;;;17.62;51.93;103646.97;4734552;30;20076;-83
2022/01/14 07:44:33;;;;;;;7.10;2.80;;;;;;;17.61;51.75;103653.88;4693715;30;20049;-82
2022/01/14 07:50:26;;;;;;;7.72;2.70;;;;;;;17.70;51.80;103663.72;4765363;30;20106;-80
2022/01/14 07:53:36;;;;;;;9.88;3.15;;;;;;;17.82;52.20;103668.53;4803185;29;20063;-82
2022/01/14 07:59:06;;;;;;;6.53;2.80;;;;;;;17.89;51.56;103663.56;4801271;29;20525;-80
2022/01/14 08:01:35;;;;;;;5.47;2.63;;;;;;;17.89;51.75;103658.34;4779848;30;20054;-79
2022/01/14 08:04:01;;;;;;;7.13;2.70;;;;;;;17.89;51.77;103660.06;4779068;30;20055;-80
2022/01/14 08:06:27;;;;;;;5.55;2.60;;;;;;;17.90;51.84;103659.25;4778754;30;20054;-79
2022/01/14 08:08:53;;;;;;;5.93;2.80;;;;;;;17.91;52.17;103647.13;4792522;30;20505;-79
2022/01/14 08:11:18;;;;;;;6.45;2.95;;;;;;;17.91;52.06;103661.00;4780068;29;20043;-80
2022/01/14 08:13:44;;;;;;;6.22;2.67;;;;;;;17.94;52.08;103670.66;4824073;29;20038;-80
2022/01/14 08:16:09;;;;;;;5.93;2.78;;;;;;;17.92;52.09;103652.38;4843743;29;20089;-80
2022/01/14 08:18:36;;;;;;;5.57;2.63;;;;;;;17.94;51.83;103649.81;4845302;29;20131;-80
2022/01/14 08:21:02;;;;;;;6.97;2.80;;;;;;;17.94;51.92;103655.91;4836174;29;20034;-80
2022/01/14 08:23:28;;;;;;;5.45;2.70;;;;;;;17.94;51.94;103657.63;4835226;29;20090;-79
2022/01/14 08:25:55;;;;;;;7.53;2.80;;;;;;;17.94;51.82;103665.44;4835400;29;20045;-79
2022/01/14 08:28:21;;;;;;;4.68;2.47;;;;;;;17.96;51.94;103666.38;4803612;29;20074;-79
2022/01/14 08:30:47;;;;;;;6.82;2.85;;;;;;;17.94;51.90;103666.31;4848307;29;20038;-80
2022/01/14 08:33:12;;;;;;;5.75;2.45;;;;;;;17.96;51.90;103663.78;4800140;29;20065;-80
2022/01/14 08:35:39;;;;;;;5.03;2.72;;;;;;;17.97;52.06;103662.97;4815698;29;20080;-80
2022/01/14 08:38:04;;;;;;;4.75;2.40;;;;;;;17.97;52.05;103663.84;4831964;29;20042;-78
2022/01/14 08:40:30;;;;;;;4.50;2.67;;;;;;;17.98;51.63;103664.72;4832277;29;20052;-79
2022/01/14 08:42:55;;;;;;;5.38;2.53;;;;;;;17.98;52.00;103662.09;4813712;29;20545;-79
2022/01/14 08:45:21;;;;;;;3.83;2.05;;;;;;;17.98;51.69;103662.09;4829788;29;20053;-79
2022/01/14 08:47:54;;;;;;;5.18;2.40;;;;;;;17.98;51.92;103673.41;4846381;29;20038;-79
2022/01/14 08:50:28;;;;;;;3.50;2.40;;;;;;;18.00;51.87;103665.66;4829898;29;20058;-79
2022/01/14 08:52:54;;;;;;;5.03;2.30;;;;;;;17.99;51.78;103669.97;4832453;29;20042;-79
2022/01/14 08:55:23;;;;;;;3.90;2.30;;;;;;;18.00;51.74;103665.66;4818615;29;20098;-79
2022/01/14 08:57:49;;;;;;;3.42;2.15;;;;;;;18.00;51.72;103670.88;4840937;29;20117;-79
2022/01/14 09:00:16;;;;;;;5.25;2.60;;;;;;;18.00;51.83;103671.75;4852358;29;20038;-79
2022/01/14 09:02:41;;;;;;;4.85;2.30;;;;;;;18.01;51.93;103672.66;4836900;29;20537;-79
2022/01/14 09:05:08;;;;;;;5.82;2.75;;;;;;;18.01;51.71;103670.03;4837237;29;20041;-80
2022/01/14 09:07:34;;;;;;;3.90;2.20;;;;;;;18.03;51.79;103670.94;4838621;29;20045;-80
2022/01/14 09:09:59;;;;;;;3.22;1.90;;;;;;;18.03;51.87;103673.56;4836396;29;20046;-79
2022/01/14 09:12:24;;;;;;;4.38;2.38;;;;;;;18.03;51.88;103663.13;4837626;29;20038;-79
2022/01/14 09:14:50;;;;;;;3.10;1.85;;;;;;;18.03;51.83;103665.75;4837733;29;20053;-80
2022/01/14 09:17:17;;;;;;;3.67;2.28;;;;;;;18.03;51.69;103663.13;4837776;29;20034;-79
2022/01/14 09:19:43;;;;;;;3.65;1.98;;;;;;;18.04;51.73;103662.31;4838140;29;20041;-79
2022/01/14 09:22:09;;;;;;;3.78;1.98;;;;;;;18.05;51.71;103666.69;4854524;29;20029;-79
2022/01/14 09:24:36;;;;;;;5.28;2.28;;;;;;;18.04;51.87;103664.94;4820695;29;20504;-79
2022/01/14 09:27:02;;;;;;;4.20;2.38;;;;;;;18.06;51.65;103663.25;4853222;29;20044;-78
2022/01/14 09:29:27;;;;;;;3.10;1.95;;;;;;;18.04;51.67;103667.53;4868776;29;20073;-79
2022/01/14 09:31:52;;;;;;;3.47;2.05;;;;;;;18.04;51.48;103660.59;4857067;29;20102;-78
2022/01/14 09:34:18;;;;;;;4.43;2.17;;;;;;;18.04;51.59;103663.19;4853400;29;20053;-78
2022/01/14 09:36:43;;;;;;;4.38;2.00;;;;;;;18.03;51.86;103658.84;4855808;29;20489;-78
2022/01/14 09:39:10;;;;;;;4.57;2.30;;;;;;;18.01;51.67;103652.69;4864786;29;20445;-80
2022/01/14 09:41:36;;;;;;;4.55;2.22;;;;;;;18.02;51.67;103666.59;4840793;29;20037;-80
2022/01/14 09:44:04;;;;;;;3.47;2.13;;;;;;;18.00;51.55;103657.84;4824108;29;20041;-80
2022/01/14 09:46:30;;;;;;;3.85;2.10;;;;;;;18.00;51.82;103660.44;4870458;29;20165;-80
2022/01/14 09:48:55;;;;;;;4.70;2.20;;;;;;;17.99;51.90;103653.47;4872387;29;20053;-80
2022/01/14 09:51:21;;;;;;;2.83;1.75;;;;;;;18.00;51.75;103656.09;4855486;29;20089;-79
2022/01/14 09:53:47;;;;;;;4.47;2.17;;;;;;;18.00;51.66;103661.31;4851033;29;20057;-78
2022/01/14 09:56:15;;;;;;;3.88;2.22;;;;;;;18.00;51.91;103663.03;4865685;29;20038;-79
2022/01/14 09:58:46;;;;;;;5.03;2.22;;;;;;;18.00;51.90;103668.25;4834829;29;20053;-78
2022/01/14 10:01:15;;;;;;;4.50;2.20;;;;;;;17.99;52.06;103664.78;4834929;29;20038;-78
2022/01/14 10:04:06;;;;;;;4.30;2.28;;;;;;;17.99;51.83;103672.59;4849654;29;20040;-78
2022/01/14 10:06:43;;;;;;;3.03;1.70;;;;;;;18.00;51.88;103676.06;4861440;29;20049;-79
2022/01/14 10:09:13;;;;;;;3.55;1.80;;;;;;;18.00;51.93;103678.69;4865959;29;20033;-78
2022/01/14 10:11:42;;;;;;;4.57;2.10;;;;;;;18.00;51.84;103683.88;4849311;29;20076;-79
2022/01/14 10:14:15;;;;;;;3.65;2.00;;;;;;;17.99;51.82;103690.84;4834125;29;20069;-79
2022/01/14 10:16:41;;;;;;;3.70;1.80;;;;;;;17.99;52.15;103693.44;4849946;29;20386;-79
2022/01/14 10:19:26;;;;;;;4.90;2.10;;;;;;;17.99;51.94;103705.59;4866710;29;20116;-79
2022/01/14 10:21:53;;;;;;;3.88;2.20;;;;;;;18.00;52.02;103694.31;4854487;29;20469;-78
2022/01/14 10:24:21;;;;;;;4.03;1.98;;;;;;;17.99;52.00;103685.63;4854124;29;20564;-78
2022/01/14 10:27:05;;;;;;;3.65;2.10;;;;;;;18.00;51.91;103692.59;4853473;29;20085;-84
2022/01/14 10:29:38;;;;;;;4.40;2.20;;;;;;;18.02;51.91;103690.91;4873241;29;20186;-81
2022/01/14 10:32:06;;;;;;;3.22;1.90;;;;;;;18.05;51.87;103693.66;4860604;29;20521;-81
2022/01/14 10:34:33;;;;;;;3.53;2.00;;;;;;;18.07;52.05;103683.25;4861921;29;20033;-79
2022/01/14 10:37:14;;;;;;;4.10;2.22;;;;;;;18.11;52.09;103684.25;4858750;29;20045;-80
2022/01/14 10:39:49;;;;;;;3.80;1.95;;;;;;;18.11;51.91;103692.94;4858585;29;20018;-81
2022/01/14 10:42:30;;;;;;;4.38;1.98;;;;;;;18.11;51.97;103689.47;4865466;29;20102;-82
2022/01/14 10:45:35;;;;;;;3.97;1.80;;;;;;;18.13;52.05;103691.28;4866678;29;20065;-82
2022/01/14 10:51:36;;;;;;;4.60;1.80;;;;;;;18.14;52.09;103685.25;4884448;29;20043;-83
2022/01/14 10:54:07;;;;;;;6.05;1.98;;;;;;;18.16;51.90;103688.81;4877717;29;20029;-79
2022/01/14 10:56:32;;;;;;;3.88;1.73;;;;;;;18.17;51.92;103687.06;4854858;29;20094;-79
2022/01/14 10:58:59;;;;;;;4.25;1.63;;;;;;;18.16;51.94;103678.38;4823364;29;20053;-80
2022/01/14 11:01:25;;;;;;;2.85;1.70;;;;;;;18.18;51.67;103681.00;4821553;29;20059;-82
2022/01/14 11:03:52;;;;;;;2.55;1.75;;;;;;;18.19;51.70;103682.78;4837075;29;20048;-80
2022/01/14 11:06:32;;;;;;;3.42;1.88;;;;;;;18.18;51.69;103679.31;4864126;29;20039;-79
2022/01/14 11:08:57;;;;;;;3.75;1.80;;;;;;;18.19;51.80;103678.47;4856399;29;20037;-79
2022/01/14 11:11:24;;;;;;;4.28;1.63;;;;;;;18.21;51.84;103687.22;4855423;29;20347;-79
2022/01/14 11:13:56;;;;;;;3.22;1.50;;;;;;;18.20;51.86;103689.78;4841694;29;20828;-81
2022/01/14 11:18:59;;;;;;;2.38;1.67;;;;;;;18.21;51.92;103679.41;5465667;23;20092;-81
2022/01/14 11:24:49;;;;;;;7.57;2.20;;;;;;;18.26;51.77;103676.94;4898118;29;20043;-79
2022/01/14 11:27:17;;;;;;;4.22;2.22;;;;;;;18.26;51.97;103672.59;4875265;29;20045;-79
2022/01/14 11:29:45;;;;;;;7.18;2.20;;;;;;;18.24;52.29;103665.56;4885797;29;20037;-79
2022/01/14 11:32:11;;;;;;;3.78;2.20;;;;;;;18.24;51.80;103678.59;4886569;29;20040;-79
2022/01/14 11:34:50;;;;;;;3.35;2.10;;;;;;;18.23;51.90;103671.66;4887204;29;20041;-79
2022/01/14 11:37:30;;;;;;;3.80;2.10;;;;;;;18.21;51.93;103674.19;4872893;29;20047;-79
2022/01/14 11:39:59;;;;;;;2.67;1.85;;;;;;;18.21;51.77;103674.19;4874105;29;20041;-79
2022/01/14 11:42:44;;;;;;;3.67;2.22;;;;;;;18.20;51.86;103677.63;4874723;29;20029;-79
2022/01/14 11:45:15;;;;;;;5.00;2.53;;;;;;;18.19;51.88;103673.25;4895002;29;20037;-79
2022/01/14 11:47:41;;;;;;;3.72;2.22;;;;;;;18.20;51.63;103671.53;4878162;29;20029;-79
2022/01/14 11:50:18;;;;;;;3.47;2.00;;;;;;;18.19;51.95;103661.94;4895279;29;20074;-79
2022/01/14 11:52:45;;;;;;;3.78;2.08;;;;;;;18.17;51.87;103661.00;4892478;29;20050;-78
2022/01/14 11:55:32;;;;;;;3.45;2.33;;;;;;;18.19;52.00;103669.75;4861778;29;20040;-79
2022/01/14 11:58:04;;;;;;;4.38;2.17;;;;;;;18.18;52.12;103660.16;4893183;29;20041;-79
2022/01/14 12:00:33;;;;;;;4.10;2.33;;;;;;;18.20;51.74;103666.31;4877742;29;20029;-79
2022/01/14 12:03:09;;;;;;;5.32;2.55;;;;;;;18.22;51.72;103668.13;4872599;29;20040;-79
2022/01/14 12:05:51;;;;;;;3.15;2.10;;;;;;;18.24;51.58;103665.56;4891519;29;20033;-79
2022/01/14 12:08:19;;;;;;;3.22;2.20;;;;;;;18.24;51.67;103666.44;4876273;29;20057;-78
2022/01/14 12:10:49;;;;;;;3.88;2.10;;;;;;;18.26;51.96;103659.56;4868235;29;20041;-79
2022/01/14 12:13:50;;;;;;;4.80;1.90;;;;;;;18.27;51.86;103660.47;4865200;29;20476;-78
2022/01/14 12:16:18;;;;;;;3.50;1.75;;;;;;;18.28;51.49;103662.25;4880417;29;20068;-79
2022/01/14 12:19:00;;;;;;;3.88;1.90;;;;;;;18.30;51.67;103660.56;4881178;29;20040;-78
2022/01/14 12:21:39;;;;;;;4.80;1.98;;;;;;;18.29;51.72;103656.19;4866133;29;20033;-79
2022/01/14 12:24:19;;;;;;;4.88;1.98;;;;;;;18.29;51.59;103657.09;4865908;29;20093;-79
2022/01/14 12:26:57;;;;;;;3.33;1.85;;;;;;;18.32;51.48;103653.69;4867551;29;20043;-79
2022/01/14 12:29:35;;;;;;;3.75;1.92;;;;;;;18.30;51.38;103650.16;4870431;29;20128;-78
2022/01/14 12:32:04;;;;;;;5.82;2.13;;;;;;;18.31;51.50;103657.09;4884962;29;20041;-80
2022/01/14 12:34:34;;;;;;;2.85;1.80;;;;;;;18.32;51.67;103647.59;4868483;29;20054;-79
2022/01/14 12:37:00;;;;;;;2.92;1.85;;;;;;;18.32;51.72;103650.19;4869584;29;20044;-79
2022/01/14 12:39:26;;;;;;;4.55;2.20;;;;;;;18.32;51.36;103651.06;4870998;29;20097;-79
2022/01/14 12:41:53;;;;;;;2.97;1.95;;;;;;;18.31;51.45;103641.47;4879320;29;20029;-79
2022/01/14 12:44:21;;;;;;;3.20;1.75;;;;;;;18.30;51.53;103645.81;4873177;29;20127;-79
2022/01/14 12:49:20;;;;;;;2.33;1.60;;;;;;;18.26;51.54;103643.06;4871024;29;20045;-79
2022/01/14 12:51:46;;;;;;;2.72;1.85;;;;;;;18.27;51.54;103634.41;4871316;29;20036;-79
2022/01/14 12:54:11;;;;;;;3.17;1.80;;;;;;;18.25;51.42;103639.56;4837922;29;20511;-79
2022/01/14 12:56:42;;;;;;;3.80;2.08;;;;;;;18.26;51.55;103640.44;4838390;29;20045;-79
2022/01/14 12:59:15;;;;;;;2.90;1.88;;;;;;;18.26;51.81;103633.50;4869351;29;20395;-79
2022/01/14 13:01:50;;;;;;;2.70;2.00;;;;;;;18.26;51.40;103633.50;4856846;29;20062;-81
2022/01/14 13:04:18;;;;;;;4.20;2.03;;;;;;;18.25;51.33;103626.53;4879362;29;20041;-81
2022/01/14 13:09:51;;;;;;;4.03;2.00;;;;;;;18.24;51.43;103610.84;4839170;29;20563;-79
2022/01/14 13:12:26;;;;;;;4.00;2.10;;;;;;;18.25;51.36;103616.09;4825951;29;20050;-78
2022/01/14 13:15:00;;;;;;;4.18;2.00;;;;;;;18.25;51.27;103613.50;4836273;29;20058;-78
2022/01/14 13:17:31;;;;;;;4.15;1.88;;;;;;;18.27;51.48;103603.13;4836331;29;20071;-77
2022/01/14 13:19:58;;;;;;;2.92;1.70;;;;;;;18.26;51.56;103597.00;4839944;29;20149;-78
2022/01/14 13:22:24;;;;;;;3.42;1.88;;;;;;;18.24;51.55;103596.06;4835030;29;20160;-78
2022/01/14 13:24:53;;;;;;;2.83;1.85;;;;;;;18.27;51.40;103595.31;4817622;29;20038;-77
2022/01/14 13:27:27;;;;;;;3.90;2.08;;;;;;;18.30;51.28;103588.44;4818021;29;20099;-78
2022/01/14 13:30:04;;;;;;;5.65;2.10;;;;;;;18.34;51.42;103591.19;4839961;29;20045;-83
2022/01/14 13:32:35;;;;;;;3.45;2.15;;;;;;;18.37;51.54;103596.47;4844677;29;20058;-81
2022/01/14 13:35:26;;;;;;;3.30;1.92;;;;;;;18.37;51.46;103606.91;4820640;29;20038;-82
2022/01/14 13:38:00;;;;;;;4.95;2.15;;;;;;;18.35;51.34;103599.03;4819537;29;20045;-81
2022/01/14 13:40:29;;;;;;;3.83;2.08;;;;;;;18.36;51.43;103598.19;4820335;29;20035;-81
2022/01/14 13:47:00;;;;;;;5.78;2.20;;;;;;;18.34;51.47;103602.47;4846608;29;20033;-82
2022/01/14 14:00:20;;;;;;;4.07;2.00;;;;;;;18.34;51.24;103623.34;4810662;29;20046;-83
2022/01/14 14:17:40;;;;;;;3.38;1.80;;;;;;;18.26;51.69;103615.25;4775982;30;20059;-84
2022/01/14 14:53:44;;;;;;;2.65;1.70;;;;;;;18.17;51.47;103599.34;5922207;23;21144;-82
2022/01/14 15:06:30;;;;;;;3.40;2.20;;;;;;;18.21;51.43;103588.19;4916208;23;20056;-83
2022/01/14 15:08:56;;;;;;;2.67;1.75;;;;;;;18.22;51.36;103589.06;4881627;29;20238;-81
2022/01/14 15:11:42;;;;;;;2.92;1.90;;;;;;;18.26;51.49;103594.41;4873584;29;20123;-84
2022/01/14 15:14:30;;;;;;;4.18;2.00;;;;;;;18.25;51.40;103597.00;4824395;29;20031;-82
2022/01/14 15:19:24;;;;;;;3.42;2.28;;;;;;;18.28;51.67;103591.84;4869258;29;20076;-81
2022/01/14 15:21:49;;;;;;;6.88;2.00;;;;;;;18.30;51.56;103592.78;4884287;29;20088;-80
2022/01/14 15:24:15;;;;;;;6.93;2.08;;;;;;;18.29;51.70;103591.91;4869143;29;20109;-81